Time;durP1;ratioP1;P1;durP2;ratioP2;P2;SDS_P1;SDS_P2;PMS_P1;PMS_P2;Temp;Humidity;BMP_temperature;BMP_pressure;BME280_temperature;BME280_humidity;BME280_pressure;Samples;Min_cycle;Max_cycle;Signal;HPM_P1;HPM_P2
2022/03/29 00:00:42;;;;;;;45.63;26.27;;;;;;;10.00;62.75;98791.88;5009674;28;20038;-79
2022/03/29 00:03:08;;;;;;;50.17;27.77;;;;;;;9.96;63.10;98792.59;4991887;28;20029;-79
2022/03/29 00:05:34;;;;;;;46.92;28.70;;;;;;;9.89;63.23;98784.78;5007199;28;20038;-79
2022/03/29 00:08:01;;;;;;;46.97;27.92;;;;;;;9.87;63.18;98784.22;5008180;28;20075;-79
2022/03/29 00:10:27;;;;;;;47.33;28.85;;;;;;;9.91;63.32;98780.00;4995271;28;20029;-80
2022/03/29 00:12:55;;;;;;;48.65;29.10;;;;;;;9.93;63.80;98785.09;4994221;28;20033;-79
2022/03/29 00:15:21;;;;;;;48.78;29.40;;;;;;;9.89;63.64;98774.09;5013850;28;20033;-80
2022/03/29 00:17:47;;;;;;;50.10;29.05;;;;;;;9.85;63.51;98769.50;5008745;28;20026;-80
2022/03/29 00:20:14;;;;;;;51.33;30.17;;;;;;;9.76;63.76;98769.13;5007551;28;20033;-79
2022/03/29 00:22:40;;;;;;;47.83;28.27;;;;;;;9.85;63.89;98764.97;5018665;28;20106;-79
2022/03/29 00:25:05;;;;;;;50.40;29.17;;;;;;;9.87;63.32;98759.41;5009451;28;20105;-79
2022/03/29 00:27:31;;;;;;;51.45;31.17;;;;;;;9.80;63.11;98757.72;5009520;28;20398;-79
2022/03/29 00:29:56;;;;;;;47.30;28.48;;;;;;;9.80;63.66;98760.41;5013267;28;20030;-80
2022/03/29 00:32:22;;;;;;;46.88;30.33;;;;;;;9.76;64.05;98755.81;4991993;28;20409;-80
2022/03/29 00:34:47;;;;;;;48.92;29.50;;;;;;;9.66;63.52;98758.31;5011742;28;20076;-79
2022/03/29 00:37:13;;;;;;;49.78;31.23;;;;;;;9.67;63.43;98749.28;5011947;28;20037;-79
2022/03/29 00:39:38;;;;;;;54.45;31.42;;;;;;;9.78;62.59;98753.69;5009921;28;20046;-79
2022/03/29 00:42:04;;;;;;;48.95;30.25;;;;;;;9.73;63.80;98754.44;5012080;28;20061;-79
2022/03/29 00:44:31;;;;;;;42.30;28.80;;;;;;;9.72;62.82;98747.47;5013664;28;20034;-79
2022/03/29 00:46:58;;;;;;;52.85;32.28;;;;;;;9.66;63.89;98744.97;5010818;28;20065;-79
2022/03/29 00:49:24;;;;;;;55.08;32.88;;;;;;;9.72;63.36;98741.31;5010633;28;20357;-79
2022/03/29 00:51:49;;;;;;;50.42;31.02;;;;;;;9.64;63.67;98736.41;4993572;28;20034;-79
2022/03/29 00:54:15;;;;;;;50.10;32.20;;;;;;;9.68;63.77;98737.53;4995089;28;20044;-79
2022/03/29 00:56:40;;;;;;;49.80;31.13;;;;;;;9.59;64.28;98731.81;5013615;28;20025;-79
2022/03/29 00:59:06;;;;;;;46.47;31.33;;;;;;;9.60;63.54;98721.97;5011740;28;20029;-79
2022/03/29 01:01:31;;;;;;;51.50;32.35;;;;;;;9.55;63.67;98724.56;4991011;28;20046;-79
2022/03/29 01:03:57;;;;;;;52.90;31.88;;;;;;;9.53;64.08;98722.16;4996105;28;20052;-79
2022/03/29 01:06:23;;;;;;;49.80;31.45;;;;;;;9.51;64.22;98710.13;4993238;28;20034;-79
2022/03/29 01:08:49;;;;;;;51.38;33.47;;;;;;;9.49;63.78;98718.38;4993811;28;20123;-79
2022/03/29 01:11:15;;;;;;;52.17;34.03;;;;;;;9.47;64.17;98717.00;5008606;28;20121;-79
2022/03/29 01:13:41;;;;;;;50.22;31.65;;;;;;;9.37;64.42;98711.53;4990742;28;20033;-79
2022/03/29 01:18:53;;;;;;;48.35;31.65;;;;;;;9.47;64.01;98717.81;5013715;28;20052;-79
2022/03/29 01:21:20;;;;;;;53.47;34.22;;;;;;;9.45;64.46;98717.25;5012175;28;20387;-79
2022/03/29 01:23:48;;;;;;;48.60;32.83;;;;;;;9.40;64.49;98713.69;5019979;28;20121;-79
2022/03/29 01:26:18;;;;;;;52.33;33.08;;;;;;;9.39;64.38;98709.44;5011160;28;20113;-79
2022/03/29 01:28:44;;;;;;;57.30;35.35;;;;;;;9.39;64.48;98704.88;5008347;28;20045;-79
2022/03/29 01:31:11;;;;;;;53.55;34.28;;;;;;;9.37;64.21;98706.97;4988926;28;20111;-79
2022/03/29 01:33:38;;;;;;;56.05;32.85;;;;;;;9.36;64.06;98699.25;5012285;28;20564;-79
2022/03/29 01:36:04;;;;;;;54.13;33.97;;;;;;;9.33;64.44;98691.72;4991153;28;20029;-79
2022/03/29 01:38:29;;;;;;;51.67;31.95;;;;;;;9.31;64.15;98684.00;4991438;28;20045;-79
2022/03/29 01:41:03;;;;;;;49.30;31.73;;;;;;;9.35;64.50;98673.69;5008091;28;20030;-79
2022/03/29 01:43:29;;;;;;;53.55;33.50;;;;;;;9.34;63.81;98677.38;5020928;28;20034;-79
2022/03/29 01:45:54;;;;;;;51.72;32.03;;;;;;;9.28;63.57;98689.00;5007972;28;20038;-79
2022/03/29 01:48:19;;;;;;;48.80;31.38;;;;;;;9.27;64.36;98682.06;5009336;28;20042;-79
2022/03/29 01:50:46;;;;;;;46.38;30.67;;;;;;;9.25;63.87;98678.84;5007609;28;20030;-79
2022/03/29 01:53:26;;;;;;;52.15;30.83;;;;;;;9.30;63.85;98674.41;5002353;28;20096;-79
2022/03/29 01:55:59;;;;;;;52.78;32.42;;;;;;;9.21;64.25;98672.38;5003352;28;20480;-80
2022/03/29 01:58:26;;;;;;;50.30;30.80;;;;;;;9.25;64.42;98679.66;5003427;28;20049;-79
2022/03/29 02:00:51;;;;;;;53.38;31.75;;;;;;;9.25;64.48;98673.50;4999107;28;20022;-80
2022/03/29 02:03:17;;;;;;;50.80;32.85;;;;;;;9.27;63.67;98674.06;4984882;28;20034;-79
2022/03/29 02:05:42;;;;;;;52.88;31.23;;;;;;;9.20;64.65;98671.56;5001050;28;20666;-80
2022/03/29 02:08:07;;;;;;;48.97;31.67;;;;;;;9.14;64.24;98666.41;4999347;28;20418;-79
2022/03/29 02:10:33;;;;;;;51.97;31.98;;;;;;;9.14;64.11;98661.09;4999269;28;20017;-79
2022/03/29 02:12:59;;;;;;;50.95;33.08;;;;;;;9.17;64.36;98671.28;5020695;28;20026;-79
2022/03/29 02:15:24;;;;;;;50.10;31.17;;;;;;;9.12;64.67;98665.84;4999162;28;20111;-79
2022/03/29 02:17:50;;;;;;;49.45;30.92;;;;;;;9.20;64.16;98670.75;5015245;28;20038;-80
2022/03/29 02:20:17;;;;;;;59.67;35.00;;;;;;;9.13;64.49;98660.28;5006371;28;20083;-79
2022/03/29 02:22:43;;;;;;;52.60;32.70;;;;;;;9.15;64.35;98668.03;5004549;28;20042;-79
2022/03/29 02:25:12;;;;;;;55.25;33.55;;;;;;;9.14;64.94;98669.91;5003366;28;20408;-79
2022/03/29 02:27:39;;;;;;;51.47;32.15;;;;;;;9.16;64.69;98669.66;5002480;28;20029;-79
2022/03/29 02:30:07;;;;;;;54.08;32.67;;;;;;;9.18;64.48;98663.03;4996592;28;20030;-79
2022/03/29 02:32:32;;;;;;;52.60;32.08;;;;;;;9.11;64.62;98659.72;5002842;28;20113;-79
2022/03/29 02:34:58;;;;;;;59.13;34.47;;;;;;;9.13;64.29;98654.97;5003561;28;20124;-79
2022/03/29 02:37:24;;;;;;;48.53;32.63;;;;;;;9.09;65.02;98653.06;5004712;28;20033;-79
2022/03/29 02:39:49;;;;;;;54.60;32.13;;;;;;;9.17;64.96;98647.31;5000046;28;20026;-79
2022/03/29 02:42:14;;;;;;;55.22;33.35;;;;;;;9.12;65.18;98644.56;5002360;28;20033;-79
2022/03/29 02:44:40;;;;;;;57.20;33.15;;;;;;;9.14;64.61;98634.47;5001041;28;20593;-79
2022/03/29 02:47:05;;;;;;;51.90;32.30;;;;;;;9.12;65.36;98637.38;5003609;28;20022;-79
2022/03/29 02:49:31;;;;;;;49.33;31.55;;;;;;;9.12;65.10;98628.59;5010039;28;20100;-79
2022/03/29 02:51:56;;;;;;;49.42;31.88;;;;;;;9.13;64.63;98635.53;4993362;28;20079;-79
2022/03/29 02:54:21;;;;;;;53.78;31.42;;;;;;;9.04;65.07;98630.59;5006449;28;20030;-80
2022/03/29 02:56:47;;;;;;;57.83;33.05;;;;;;;9.10;65.49;98631.50;5008847;28;20498;-79
2022/03/29 02:59:16;;;;;;;53.22;32.78;;;;;;;9.11;64.99;98637.63;5007979;28;20033;-79
2022/03/29 03:01:41;;;;;;;51.60;33.30;;;;;;;9.04;64.95;98638.59;4985776;28;20053;-79
2022/03/29 03:04:07;;;;;;;56.28;32.83;;;;;;;8.99;65.69;98635.06;5008117;28;20042;-79
2022/03/29 03:06:33;;;;;;;56.05;33.88;;;;;;;9.01;65.02;98628.44;4984219;28;20041;-79
2022/03/29 03:08:58;;;;;;;48.80;30.52;;;;;;;9.05;65.15;98636.75;5007448;28;20398;-79
2022/03/29 03:11:24;;;;;;;54.67;33.80;;;;;;;9.06;65.19;98638.38;5009570;28;20029;-80
2022/03/29 03:13:50;;;;;;;51.92;32.17;;;;;;;9.04;64.85;98635.94;4998854;28;20030;-79
2022/03/29 03:16:15;;;;;;;51.75;32.72;;;;;;;9.02;65.56;98629.25;5006553;28;20385;-79
2022/03/29 03:18:41;;;;;;;52.30;32.22;;;;;;;9.03;65.50;98622.88;4973885;28;20034;-79
2022/03/29 03:21:06;;;;;;;50.05;31.10;;;;;;;9.02;66.24;98630.03;5008878;28;20038;-79
2022/03/29 03:23:31;;;;;;;50.80;31.90;;;;;;;8.93;65.37;98626.16;5009714;28;20042;-79
2022/03/29 03:25:57;;;;;;;47.92;31.05;;;;;;;8.97;65.71;98624.66;5004490;28;20052;-79
2022/03/29 03:28:22;;;;;;;53.10;30.38;;;;;;;9.00;64.92;98616.16;5006892;28;20716;-79
2022/03/29 03:30:48;;;;;;;50.63;31.85;;;;;;;8.98;65.37;98620.94;5006017;28;20432;-79
2022/03/29 03:33:13;;;;;;;54.15;33.47;;;;;;;8.99;65.40;98619.91;5005762;28;20200;-79
2022/03/29 03:35:38;;;;;;;51.83;32.97;;;;;;;8.94;66.28;98608.34;5003138;28;20033;-79
2022/03/29 03:38:05;;;;;;;53.97;32.78;;;;;;;8.93;66.38;98612.88;5023837;28;20045;-79
2022/03/29 03:40:31;;;;;;;57.22;34.88;;;;;;;9.02;66.18;98616.72;5003673;28;20041;-79
2022/03/29 03:42:56;;;;;;;51.80;32.60;;;;;;;9.04;65.42;98617.28;5004198;28;20030;-79
2022/03/29 03:45:22;;;;;;;53.72;32.75;;;;;;;9.01;66.15;98606.34;4983424;28;20572;-79
2022/03/29 03:47:48;;;;;;;51.97;32.10;;;;;;;8.98;65.92;98617.47;4990063;28;20030;-79
2022/03/29 03:50:13;;;;;;;49.53;31.70;;;;;;;9.01;65.84;98622.31;5020200;28;20045;-79
2022/03/29 03:52:38;;;;;;;49.83;31.50;;;;;;;8.99;66.41;98619.09;5008194;28;20018;-79
2022/03/29 03:55:04;;;;;;;52.47;32.05;;;;;;;8.99;67.06;98611.09;5005084;28;20029;-79
2022/03/29 03:57:30;;;;;;;55.80;32.72;;;;;;;9.01;66.15;98612.47;5025100;28;20060;-79
2022/03/29 03:59:56;;;;;;;49.88;31.58;;;;;;;9.04;66.19;98606.66;4987094;28;20056;-79
2022/03/29 04:02:23;;;;;;;50.13;32.90;;;;;;;9.01;66.97;98604.50;5006804;28;20170;-79
2022/03/29 04:04:48;;;;;;;55.92;33.88;;;;;;;9.11;67.18;98616.34;5010223;28;20128;-79
2022/03/29 04:07:14;;;;;;;54.85;33.40;;;;;;;9.04;66.67;98606.66;5007556;28;20124;-79
2022/03/29 04:09:40;;;;;;;54.20;33.58;;;;;;;8.99;66.85;98611.91;5012494;28;20049;-79
2022/03/29 04:12:07;;;;;;;53.10;32.47;;;;;;;9.10;67.12;98610.19;4995637;28;20084;-79
2022/03/29 04:14:32;;;;;;;50.95;32.15;;;;;;;9.09;66.50;98605.13;5012735;28;20091;-79
2022/03/29 04:16:58;;;;;;;52.58;33.58;;;;;;;9.04;66.83;98595.22;5014867;28;20045;-78
2022/03/29 04:19:23;;;;;;;51.35;32.08;;;;;;;9.08;67.00;98596.34;4993845;28;20065;-79
2022/03/29 04:21:48;;;;;;;53.55;31.58;;;;;;;9.05;67.31;98600.28;5011621;28;20083;-79
2022/03/29 04:24:14;;;;;;;57.42;32.13;;;;;;;9.13;66.94;98598.25;5013748;28;20037;-80
2022/03/29 04:26:39;;;;;;;56.42;32.28;;;;;;;9.07;67.58;98603.50;5016926;28;20527;-80
2022/03/29 04:29:05;;;;;;;53.10;30.88;;;;;;;9.04;66.72;98595.22;5007727;28;20091;-80
2022/03/29 04:31:30;;;;;;;51.25;31.58;;;;;;;9.06;66.80;98601.09;4998189;28;20120;-80
2022/03/29 04:33:58;;;;;;;49.40;32.17;;;;;;;9.09;66.90;98602.47;5007219;28;20117;-80
2022/03/29 04:36:24;;;;;;;57.53;33.80;;;;;;;9.02;67.46;98595.44;5007150;28;20077;-80
2022/03/29 04:38:50;;;;;;;51.70;29.45;;;;;;;9.02;66.66;98590.13;5009283;28;20026;-79
2022/03/29 04:41:15;;;;;;;48.38;29.10;;;;;;;9.12;67.00;98597.44;5012486;28;20042;-79
2022/03/29 04:43:40;;;;;;;52.00;32.78;;;;;;;9.04;66.66;98588.00;4993174;28;20037;-79
2022/03/29 04:46:07;;;;;;;51.17;30.83;;;;;;;9.09;66.64;98589.94;5015086;28;20034;-79
2022/03/29 04:48:32;;;;;;;53.08;32.25;;;;;;;9.03;66.95;98580.28;4996073;28;20132;-79
2022/03/29 04:50:57;;;;;;;55.35;31.90;;;;;;;9.05;66.43;98586.16;5011296;28;20105;-79
2022/03/29 04:53:23;;;;;;;49.10;30.20;;;;;;;9.05;66.74;98586.97;5017019;28;20432;-79
2022/03/29 04:55:50;;;;;;;46.60;29.95;;;;;;;9.06;66.94;98582.47;5000468;28;20048;-79
2022/03/29 04:58:15;;;;;;;52.67;31.42;;;;;;;9.05;66.53;98581.66;5014496;28;20034;-79
2022/03/29 05:00:41;;;;;;;51.13;29.88;;;;;;;9.06;66.67;98579.81;5001202;28;20370;-79
2022/03/29 05:03:06;;;;;;;50.28;29.00;;;;;;;9.01;66.85;98575.22;5016382;28;20128;-79
2022/03/29 05:05:31;;;;;;;50.00;29.83;;;;;;;9.03;66.77;98580.28;5013921;28;20509;-79
2022/03/29 05:07:57;;;;;;;47.60;29.95;;;;;;;8.95;66.77;98573.50;5019683;28;20061;-79
2022/03/29 05:10:22;;;;;;;49.28;29.58;;;;;;;8.98;67.25;98583.66;5005521;28;20374;-79
2022/03/29 05:12:49;;;;;;;46.88;31.02;;;;;;;9.02;67.26;98579.47;4974806;28;20029;-79
2022/03/29 05:15:17;;;;;;;51.63;31.20;;;;;;;9.02;67.01;98576.81;4992208;28;20561;-79
2022/03/29 05:17:43;;;;;;;43.55;27.92;;;;;;;9.03;66.87;98582.94;5004582;28;20674;-79
2022/03/29 05:20:10;;;;;;;48.58;31.25;;;;;;;9.01;67.10;98574.41;5010635;28;20104;-79
2022/03/29 05:22:44;;;;;;;46.83;29.10;;;;;;;9.04;66.58;98579.25;5017749;28;20045;-79
2022/03/29 05:25:09;;;;;;;46.33;28.92;;;;;;;9.00;67.03;98572.78;5009707;28;20022;-79
2022/03/29 05:27:35;;;;;;;52.33;30.92;;;;;;;9.07;66.96;98574.22;5012665;28;20026;-79
2022/03/29 05:30:00;;;;;;;43.00;27.58;;;;;;;9.04;66.89;98572.03;5008981;28;20026;-79
2022/03/29 05:32:25;;;;;;;47.58;30.27;;;;;;;9.01;67.52;98579.72;4998772;28;20028;-79
2022/03/29 05:34:51;;;;;;;43.85;28.02;;;;;;;9.00;66.87;98572.78;5008517;28;20125;-79
2022/03/29 05:37:16;;;;;;;46.42;29.00;;;;;;;8.94;67.54;98571.09;5013589;28;20164;-79
2022/03/29 05:39:43;;;;;;;43.63;28.17;;;;;;;8.94;67.47;98571.09;5015915;28;20493;-79
2022/03/29 05:42:09;;;;;;;50.63;29.73;;;;;;;9.00;66.50;98578.91;4989393;28;20042;-79
2022/03/29 05:44:35;;;;;;;47.92;29.00;;;;;;;9.02;66.69;98571.47;5007022;28;21403;-79
2022/03/29 05:49:44;;;;;;;50.78;31.50;;;;;;;9.00;67.60;98568.25;5004567;28;20144;-78
2022/03/29 05:52:10;;;;;;;50.50;31.00;;;;;;;8.98;67.51;98567.69;5007300;28;20503;-78
2022/03/29 05:54:35;;;;;;;48.85;30.85;;;;;;;8.97;67.69;98567.97;4990928;28;20033;-77
2022/03/29 05:57:01;;;;;;;49.38;30.75;;;;;;;8.95;67.36;98564.72;5006911;28;20022;-77
2022/03/29 05:59:26;;;;;;;57.17;34.35;;;;;;;9.04;67.64;98569.38;5006245;28;20104;-78
2022/03/29 06:01:52;;;;;;;52.70;32.03;;;;;;;9.02;66.86;98571.47;4990096;28;20033;-78
2022/03/29 06:04:22;;;;;;;50.97;32.75;;;;;;;9.02;67.39;98557.38;5002372;28;20429;-78
2022/03/29 06:06:48;;;;;;;51.08;31.13;;;;;;;9.04;67.99;98571.25;4993685;28;20026;-77
2022/03/29 06:09:13;;;;;;;47.30;30.08;;;;;;;9.01;67.32;98569.06;5007980;28;20998;-77
2022/03/29 06:11:38;;;;;;;50.03;31.10;;;;;;;9.04;67.36;98574.69;5012450;28;20392;-78
2022/03/29 06:14:04;;;;;;;51.75;32.67;;;;;;;9.08;67.17;98572.38;4991898;28;20033;-78
2022/03/29 06:16:29;;;;;;;51.30;31.05;;;;;;;9.04;67.89;98564.06;5008079;28;20077;-78
2022/03/29 06:18:54;;;;;;;48.22;32.10;;;;;;;9.05;67.47;98571.00;4973740;28;20053;-78
2022/03/29 06:21:21;;;;;;;53.85;32.42;;;;;;;9.04;67.94;98571.25;4990196;28;20058;-77
2022/03/29 06:23:47;;;;;;;48.97;32.42;;;;;;;9.06;67.32;98572.59;5008151;28;20457;-78
2022/03/29 06:26:12;;;;;;;53.50;33.17;;;;;;;9.02;67.65;98576.81;5007941;28;20057;-77
2022/03/29 06:28:37;;;;;;;55.38;33.28;;;;;;;9.04;67.42;98579.25;4974914;28;20041;-77
2022/03/29 06:31:03;;;;;;;57.40;33.65;;;;;;;9.03;67.59;98577.63;5025266;28;20026;-77
2022/03/29 06:33:28;;;;;;;50.95;32.65;;;;;;;9.02;67.51;98582.13;4974996;28;20035;-77
2022/03/29 06:35:53;;;;;;;51.13;32.17;;;;;;;9.06;67.50;98577.13;5007038;28;20030;-77
2022/03/29 06:38:21;;;;;;;53.28;33.03;;;;;;;9.11;68.07;98571.06;5007124;28;20042;-78
2022/03/29 06:40:48;;;;;;;52.42;33.75;;;;;;;9.16;67.30;98573.78;4992707;28;20117;-78
2022/03/29 06:43:14;;;;;;;54.03;32.90;;;;;;;9.14;67.87;98574.03;5006424;28;20393;-78
2022/03/29 06:45:40;;;;;;;51.90;32.28;;;;;;;9.13;66.53;98569.75;5006454;28;20030;-78
2022/03/29 06:48:06;;;;;;;52.25;31.02;;;;;;;9.15;67.20;98566.88;5006917;28;20036;-78
2022/03/29 06:50:32;;;;;;;50.92;32.70;;;;;;;9.13;67.25;98566.31;5002903;28;20081;-78
2022/03/29 06:52:59;;;;;;;50.65;31.17;;;;;;;9.23;67.04;98571.75;5006185;28;20022;-78
2022/03/29 06:58:22;;;;;;;60.30;32.25;;;;;;;9.15;66.85;98580.19;5003552;28;20050;-82
2022/03/29 07:00:47;;;;;;;56.28;33.35;;;;;;;9.11;67.56;98577.19;4999268;28;20029;-82
2022/03/29 07:03:13;;;;;;;50.08;31.00;;;;;;;9.22;66.78;98575.50;5006659;28;20089;-82
2022/03/29 07:05:42;;;;;;;48.20;31.15;;;;;;;9.21;66.87;98573.88;5005069;28;20052;-82
2022/03/29 07:08:10;;;;;;;57.58;32.08;;;;;;;9.27;67.13;98575.53;5021338;28;20398;-82
2022/03/29 07:13:23;;;;;;;49.97;29.58;;;;;;;9.19;67.11;98566.13;5015284;28;20057;-82
2022/03/29 07:15:51;;;;;;;50.55;31.73;;;;;;;9.17;67.06;98560.25;5010255;28;20462;-82
2022/03/29 07:18:17;;;;;;;47.42;29.88;;;;;;;9.23;67.16;98566.44;5005875;28;20041;-82
2022/03/29 07:20:42;;;;;;;51.45;29.92;;;;;;;9.19;67.32;98554.66;4992611;28;20493;-82
2022/03/29 07:23:08;;;;;;;47.60;29.85;;;;;;;9.24;66.89;98565.41;5006773;28;20113;-82
2022/03/29 07:25:34;;;;;;;50.42;29.92;;;;;;;9.20;66.73;98565.06;5011313;28;20478;-82
2022/03/29 07:28:00;;;;;;;48.25;30.45;;;;;;;9.25;66.76;98567.81;5002288;28;20026;-82
2022/03/29 07:30:26;;;;;;;52.28;30.10;;;;;;;9.32;66.47;98576.44;5001074;28;20117;-82
2022/03/29 07:32:53;;;;;;;47.40;28.70;;;;;;;9.28;66.67;98566.50;4990160;28;20080;-82
2022/03/29 07:35:21;;;;;;;43.55;29.20;;;;;;;9.30;66.44;98567.06;5013740;28;20385;-82
2022/03/29 07:37:48;;;;;;;47.13;28.80;;;;;;;9.28;66.25;98548.69;5010149;28;20057;-82
2022/03/29 07:40:15;;;;;;;48.88;30.13;;;;;;;9.36;66.58;98556.22;5007804;28;20033;-82
2022/03/29 07:42:41;;;;;;;47.88;29.48;;;;;;;9.39;66.77;98561.03;5002306;28;20077;-82
2022/03/29 07:45:08;;;;;;;51.50;32.03;;;;;;;9.39;66.42;98562.94;4992381;28;20120;-82
2022/03/29 07:47:36;;;;;;;47.92;28.80;;;;;;;9.42;66.37;98557.09;4998942;28;20053;-82
2022/03/29 07:50:06;;;;;;;51.00;31.48;;;;;;;9.47;66.17;98554.50;5010786;28;20092;-82
2022/03/29 07:52:33;;;;;;;52.10;30.73;;;;;;;9.43;66.32;98553.38;5019571;28;20032;-82
2022/03/29 07:54:58;;;;;;;50.17;29.33;;;;;;;9.45;66.29;98560.09;5009763;28;20033;-82
2022/03/29 07:57:25;;;;;;;53.15;31.67;;;;;;;9.45;66.36;98556.59;4981211;28;20051;-81
2022/03/29 07:59:50;;;;;;;50.70;29.85;;;;;;;9.47;66.07;98557.16;5024087;28;20045;-81
2022/03/29 08:02:16;;;;;;;47.03;29.17;;;;;;;9.50;65.72;98570.78;4994535;28;20030;-82
2022/03/29 08:04:41;;;;;;;46.20;29.13;;;;;;;9.47;66.55;98565.97;5015101;28;20184;-82
2022/03/29 08:07:08;;;;;;;53.25;30.10;;;;;;;9.51;65.40;98567.06;5017285;28;20064;-82
2022/03/29 08:09:34;;;;;;;57.72;30.70;;;;;;;9.52;66.08;98551.91;5003780;28;20430;-82
2022/03/29 08:11:59;;;;;;;46.97;29.63;;;;;;;9.49;65.88;98555.06;4996233;28;20060;-82
2022/03/29 08:14:28;;;;;;;48.78;30.73;;;;;;;9.50;66.00;98551.34;5020898;28;20046;-82
2022/03/29 08:16:55;;;;;;;49.28;31.00;;;;;;;9.53;65.70;98553.50;5016980;28;20021;-81
2022/03/29 08:19:21;;;;;;;48.45;29.75;;;;;;;9.57;65.54;98557.28;5009761;28;20022;-82
2022/03/29 08:21:49;;;;;;;53.53;31.58;;;;;;;9.55;65.99;98554.06;5014250;28;20037;-82
2022/03/29 08:24:23;;;;;;;51.05;31.23;;;;;;;9.60;65.46;98557.59;5008267;28;20109;-82
2022/03/29 08:26:51;;;;;;;54.63;33.25;;;;;;;9.66;65.27;98561.91;5012449;28;20018;-82
2022/03/29 08:29:17;;;;;;;50.60;32.65;;;;;;;9.68;65.59;98553.66;5024949;28;20112;-82
2022/03/29 08:31:44;;;;;;;51.75;31.60;;;;;;;9.66;65.93;98547.78;5009210;28;20044;-82
2022/03/29 08:34:11;;;;;;;56.58;33.17;;;;;;;9.64;66.28;98541.91;5009415;28;20021;-82
2022/03/29 08:36:38;;;;;;;55.30;31.98;;;;;;;9.66;65.10;98548.59;4994924;28;20027;-82
2022/03/29 08:39:06;;;;;;;55.95;33.38;;;;;;;9.70;65.60;98539.03;5009372;28;20040;-82
2022/03/29 08:41:37;;;;;;;54.95;32.53;;;;;;;9.75;65.83;98543.63;5010200;28;20034;-82
2022/03/29 08:44:03;;;;;;;54.42;31.90;;;;;;;9.76;65.19;98545.25;5010914;28;20018;-82
2022/03/29 08:46:33;;;;;;;51.00;31.02;;;;;;;9.81;65.59;98545.28;5020806;28;20072;-82
2022/03/29 08:48:59;;;;;;;56.00;32.55;;;;;;;9.82;65.13;98537.06;5009064;28;20033;-82
2022/03/29 08:51:25;;;;;;;51.35;30.55;;;;;;;9.89;65.39;98536.84;5013030;28;20409;-82
2022/03/29 08:53:50;;;;;;;49.53;30.40;;;;;;;9.88;65.18;98527.25;5030771;28;20034;-81
2022/03/29 08:56:15;;;;;;;53.08;31.42;;;;;;;9.93;64.59;98529.16;5012602;28;20041;-82
2022/03/29 08:58:40;;;;;;;56.38;33.58;;;;;;;9.90;64.67;98526.97;5013140;28;20049;-81
2022/03/29 09:01:06;;;;;;;51.35;30.70;;;;;;;9.96;65.11;98518.78;5004633;28;20054;-82
2022/03/29 09:03:31;;;;;;;48.67;31.38;;;;;;;9.96;65.31;98526.78;4991595;28;20871;-82
2022/03/29 09:06:09;;;;;;;52.70;31.25;;;;;;;10.00;64.28;98529.75;4992807;28;20038;-81
2022/03/29 09:08:45;;;;;;;51.97;31.17;;;;;;;10.01;64.32;98526.84;5021156;28;20077;-81
2022/03/29 09:11:12;;;;;;;52.28;31.95;;;;;;;10.08;64.58;98524.78;5014231;28;20026;-82
2022/03/29 09:13:38;;;;;;;48.40;29.98;;;;;;;10.14;63.88;98526.44;5024394;28;20032;-82
2022/03/29 09:16:05;;;;;;;52.88;30.77;;;;;;;10.14;63.86;98513.13;4997532;28;20553;-82
2022/03/29 09:18:31;;;;;;;52.28;31.65;;;;;;;10.22;63.58;98517.19;5020390;28;20042;-82
2022/03/29 09:21:16;;;;;;;47.97;29.77;;;;;;;10.27;63.45;98515.38;5003293;28;20030;-82
2022/03/29 09:24:02;;;;;;;54.42;31.30;;;;;;;10.30;63.63;98511.38;5003500;28;20113;-82
2022/03/29 09:26:30;;;;;;;54.92;31.70;;;;;;;10.40;63.39;98514.94;5006082;28;20567;-81
2022/03/29 09:28:56;;;;;;;44.85;28.88;;;;;;;10.43;63.27;98509.09;5005862;28;20033;-82
2022/03/29 09:31:23;;;;;;;47.45;30.17;;;;;;;10.51;63.53;98510.47;5009435;28;20101;-82
2022/03/29 09:33:49;;;;;;;46.75;30.38;;;;;;;10.53;63.39;98508.34;5007856;28;20061;-82
2022/03/29 09:36:20;;;;;;;46.72;29.65;;;;;;;10.55;63.09;98500.91;5008493;28;20085;-82
2022/03/29 09:38:47;;;;;;;44.72;28.17;;;;;;;10.66;63.13;98493.78;4991723;28;20133;-82
2022/03/29 09:41:28;;;;;;;50.47;30.17;;;;;;;10.67;62.99;98498.84;5010173;28;20033;-82
2022/03/29 09:44:05;;;;;;;50.90;30.17;;;;;;;10.75;63.19;98506.38;5005935;28;21436;-82
2022/03/29 09:46:30;;;;;;;43.63;29.42;;;;;;;10.72;63.30;98490.88;5011722;28;20037;-82
2022/03/29 09:49:00;;;;;;;46.47;30.25;;;;;;;10.77;62.74;98495.47;5011046;28;20395;-82
2022/03/29 09:51:28;;;;;;;54.47;31.17;;;;;;;10.82;63.47;98495.47;5000957;28;20102;-82
2022/03/29 09:53:58;;;;;;;49.85;30.38;;;;;;;10.91;62.58;98489.38;5016982;28;20079;-82
2022/03/29 09:56:28;;;;;;;60.33;32.10;;;;;;;10.79;62.79;98485.31;5017502;28;20030;-83
2022/03/29 09:59:05;;;;;;;52.75;31.55;;;;;;;10.87;62.08;98476.81;5012851;28;20044;-82
2022/03/29 10:01:30;;;;;;;46.75;29.70;;;;;;;11.03;61.63;98483.84;5004644;28;20092;-82
2022/03/29 10:03:57;;;;;;;51.67;31.20;;;;;;;10.93;62.36;98471.25;5008391;28;20033;-82
2022/03/29 10:06:24;;;;;;;53.47;31.77;;;;;;;10.87;63.42;98477.63;4996099;28;20018;-82
2022/03/29 10:11:36;;;;;;;56.47;32.10;;;;;;;11.22;61.83;98474.31;4994218;28;20083;-82
2022/03/29 10:14:03;;;;;;;55.38;32.78;;;;;;;11.13;62.45;98466.00;5010463;28;20393;-82
2022/03/29 10:16:28;;;;;;;51.15;32.20;;;;;;;11.28;61.84;98467.91;5010572;28;20026;-83
2022/03/29 10:18:54;;;;;;;53.40;31.83;;;;;;;11.23;61.80;98460.69;5005802;28;20042;-82
2022/03/29 10:21:19;;;;;;;53.50;31.15;;;;;;;11.17;62.39;98461.72;5013552;28;20029;-82
2022/03/29 10:23:49;;;;;;;51.28;30.20;;;;;;;11.31;61.67;98454.03;4978565;28;20036;-82
2022/03/29 10:26:16;;;;;;;57.25;31.05;;;;;;;11.15;62.01;98458.53;4993610;28;20034;-82
2022/03/29 10:28:42;;;;;;;56.60;31.58;;;;;;;11.07;62.19;98452.88;5017836;28;20164;-82
2022/03/29 10:31:25;;;;;;;54.00;31.63;;;;;;;11.07;62.68;98444.88;5008918;28;20036;-82
2022/03/29 10:34:10;;;;;;;53.35;31.05;;;;;;;11.38;62.00;98449.22;5024160;28;20041;-83
2022/03/29 10:37:14;;;;;;;50.35;31.20;;;;;;;11.35;61.43;98447.09;5019200;28;20017;-82
2022/03/29 10:40:01;;;;;;;52.83;31.50;;;;;;;11.48;61.18;98454.63;5028898;28;20038;-83
2022/03/29 10:42:38;;;;;;;52.58;32.05;;;;;;;11.53;61.13;98441.25;5002900;28;20053;-83
2022/03/29 10:45:17;;;;;;;;;;;;;;;11.51;61.78;98440.72;5011260;28;20551;-83
2022/03/29 10:48:02;;;;;;;51.72;30.33;;;;;;;11.60;61.76;98435.69;5000944;28;20358;-83
2022/03/29 10:50:58;;;;;;;53.13;31.42;;;;;;;11.61;61.05;98432.72;5025601;28;20034;-82
2022/03/29 10:53:35;;;;;;;52.60;31.25;;;;;;;11.64;61.54;98434.84;5003475;28;20073;-83
2022/03/29 10:56:16;;;;;;;55.35;33.00;;;;;;;11.38;61.94;98433.19;5011199;28;20025;-83
2022/03/29 10:59:04;;;;;;;49.90;32.05;;;;;;;11.59;61.11;98432.19;5008652;28;20034;-82
2022/03/29 11:01:30;;;;;;;57.72;32.05;;;;;;;11.56;61.79;98427.38;5007710;28;20026;-82
2022/03/29 11:03:59;;;;;;;49.42;29.33;;;;;;;11.71;61.47;98423.94;5010376;28;20038;-82
2022/03/29 11:06:25;;;;;;;53.15;31.67;;;;;;;11.74;61.88;98415.41;5027177;28;20111;-83
2022/03/29 11:09:03;;;;;;;48.20;30.80;;;;;;;11.85;61.07;98417.81;5010803;28;20112;-82
2022/03/29 11:11:40;;;;;;;56.05;32.00;;;;;;;11.88;61.01;98408.47;5013242;28;20121;-82
2022/03/29 11:14:32;;;;;;;49.45;29.88;;;;;;;11.91;60.56;98408.72;4999022;28;20037;-83
2022/03/29 11:17:09;;;;;;;45.13;29.98;;;;;;;11.95;60.80;98398.28;5020449;28;20068;-83
2022/03/29 11:19:46;;;;;;;52.97;31.55;;;;;;;12.10;60.97;98397.50;5018703;28;20124;-83
2022/03/29 11:22:29;;;;;;;47.97;30.33;;;;;;;12.16;60.54;98389.19;5025558;28;20030;-83
2022/03/29 11:24:58;;;;;;;50.60;30.88;;;;;;;12.12;60.54;98376.63;5020604;28;20068;-83
2022/03/29 11:27:28;;;;;;;56.72;32.92;;;;;;;12.37;60.24;98392.63;5001659;28;20029;-82
2022/03/29 11:29:55;;;;;;;54.25;30.75;;;;;;;12.49;59.66;98388.56;5023450;28;20026;-83
2022/03/29 11:32:21;;;;;;;47.75;30.83;;;;;;;12.50;59.71;98387.50;5024001;28;20041;-82
2022/03/29 11:34:57;;;;;;;50.30;32.35;;;;;;;12.50;59.33;98368.78;5034843;28;20040;-83
2022/03/29 11:37:26;;;;;;;;;;;;;;;12.60;59.54;98359.91;5037322;28;20025;-82
2022/03/29 11:39:51;;;;;;;42.22;28.35;;;;;;;12.53;60.00;98362.88;5020104;28;19928;-83